sensor_id;sensor_type;location;lat;lon;timestamp;pressure;altitude;pressure_sealevel;temperature;humidity
26043;BME280;13818;52.156;5.382;2023-06-04T00:02:15;101960.25;;;14.70;100.00
26043;BME280;13818;52.156;5.382;2023-06-04T00:04:42;101969.44;;;14.64;100.00
26043;BME280;13818;52.156;5.382;2023-06-04T00:07:08;101975.28;;;14.74;100.00
26043;BME280;13818;52.156;5.382;2023-06-04T00:09:35;101958.75;;;14.83;100.00
26043;BME280;13818;52.156;5.382;2023-06-04T00:12:03;101970.81;;;14.54;100.00
26043;BME280;13818;52.156;5.382;2023-06-04T00:14:30;101961.00;;;14.53;100.00
26043;BME280;13818;52.156;5.382;2023-06-04T00:16:56;101960.84;;;14.56;100.00
26043;BME280;13818;52.156;5.382;2023-06-04T00:19:23;101963.06;;;14.46;100.00
26043;BME280;13818;52.156;5.382;2023-06-04T00:21:50;101967.16;;;14.55;100.00
26043;BME280;13818;52.156;5.382;2023-06-04T00:24:16;101969.56;;;14.61;100.00
26043;BME280;13818;52.156;5.382;2023-06-04T00:26:43;101960.84;;;14.56;100.00
26043;BME280;13818;52.156;5.382;2023-06-04T00:29:12;101960.63;;;14.41;100.00
26043;BME280;13818;52.156;5.382;2023-06-04T00:31:39;101957.03;;;14.41;100.00
26043;BME280;13818;52.156;5.382;2023-06-04T00:34:06;101957.44;;;14.52;100.00
26043;BME280;13818;52.156;5.382;2023-06-04T00:36:32;101961.63;;;14.39;100.00
26043;BME280;13818;52.156;5.382;2023-06-04T00:38:59;101953.69;;;14.36;100.00
26043;BME280;13818;52.156;5.382;2023-06-04T00:41:26;101962.09;;;14.28;100.00
26043;BME280;13818;52.156;5.382;2023-06-04T00:43:52;101959.72;;;14.41;100.00
26043;BME280;13818;52.156;5.382;2023-06-04T00:46:24;101953.75;;;14.34;100.00
26043;BME280;13818;52.156;5.382;2023-06-04T00:48:52;101959.66;;;14.22;100.00
26043;BME280;13818;52.156;5.382;2023-06-04T00:51:19;101964.69;;;14.29;100.00
26043;BME280;13818;52.156;5.382;2023-06-04T00:53:46;101961.16;;;14.29;100.00
26043;BME280;13818;52.156;5.382;2023-06-04T00:56:13;101953.38;;;14.23;100.00
26043;BME280;13818;52.156;5.382;2023-06-04T00:58:39;101958.47;;;14.29;100.00
26043;BME280;13818;52.156;5.382;2023-06-04T01:01:12;101963.09;;;14.25;100.00
26043;BME280;13818;52.156;5.382;2023-06-04T01:03:44;101971.47;;;14.18;100.00
26043;BME280;13818;52.156;5.382;2023-06-04T01:06:15;101964.50;;;14.13;100.00
26043;BME280;13818;52.156;5.382;2023-06-04T01:08:46;101968.50;;;14.03;100.00
26043;BME280;13818;52.156;5.382;2023-06-04T01:11:15;101964.69;;;14.09;100.00
26043;BME280;13818;52.156;5.382;2023-06-04T01:13:41;101961.34;;;14.04;100.00
26043;BME280;13818;52.156;5.382;2023-06-04T01:16:09;101961.13;;;13.88;100.00
26043;BME280;13818;52.156;5.382;2023-06-04T01:18:38;101960.41;;;14.05;100.00
26043;BME280;13818;52.156;5.382;2023-06-04T01:21:08;101957.09;;;13.98;100.00
26043;BME280;13818;52.156;5.382;2023-06-04T01:23:45;101962.00;;;14.09;100.00
26043;BME280;13818;52.156;5.382;2023-06-04T01:26:12;101964.44;;;14.15;100.00
26043;BME280;13818;52.156;5.382;2023-06-04T01:28:39;101962.94;;;13.87;100.00
26043;BME280;13818;52.156;5.382;2023-06-04T01:31:07;101961.25;;;13.85;100.00
26043;BME280;13818;52.156;5.382;2023-06-04T01:33:35;101957.91;;;14.00;100.00
26043;BME280;13818;52.156;5.382;2023-06-04T01:36:02;101967.44;;;14.28;100.00
26043;BME280;13818;52.156;5.382;2023-06-04T01:38:30;101974.13;;;14.38;100.00
26043;BME280;13818;52.156;5.382;2023-06-04T01:40:56;101963.63;;;14.34;100.00
26043;BME280;13818;52.156;5.382;2023-06-04T01:43:27;101962.56;;;14.17;100.00
26043;BME280;13818;52.156;5.382;2023-06-04T01:45:53;101965.19;;;14.19;100.00
26043;BME280;13818;52.156;5.382;2023-06-04T01:48:22;101965.09;;;13.99;100.00
26043;BME280;13818;52.156;5.382;2023-06-04T01:50:48;101963.94;;;14.05;100.00
26043;BME280;13818;52.156;5.382;2023-06-04T01:53:15;101959.53;;;14.04;100.00
26043;BME280;13818;52.156;5.382;2023-06-04T01:55:43;101961.13;;;13.88;100.00
26043;BME280;13818;52.156;5.382;2023-06-04T01:58:09;101966.38;;;13.69;100.00
26043;BME280;13818;52.156;5.382;2023-06-04T02:00:36;101957.94;;;13.78;100.00
26043;BME280;13818;52.156;5.382;2023-06-04T02:03:03;101961.19;;;13.86;100.00
26043;BME280;13818;52.156;5.382;2023-06-04T02:05:29;101957.53;;;13.66;100.00
26043;BME280;13818;52.156;5.382;2023-06-04T02:07:56;101959.53;;;13.61;100.00
26043;BME280;13818;52.156;5.382;2023-06-04T02:10:22;101958.69;;;13.81;100.00
26043;BME280;13818;52.156;5.382;2023-06-04T02:12:56;101966.31;;;13.70;100.00
26043;BME280;13818;52.156;5.382;2023-06-04T02:15:23;101964.88;;;13.61;100.00
26043;BME280;13818;52.156;5.382;2023-06-04T02:17:50;101962.13;;;13.85;100.00
26043;BME280;13818;52.156;5.382;2023-06-04T02:20:17;101963.28;;;13.79;100.00
26043;BME280;13818;52.156;5.382;2023-06-04T02:22:44;101958.97;;;13.53;100.00
26043;BME280;13818;52.156;5.382;2023-06-04T02:25:10;101962.78;;;13.70;100.00
26043;BME280;13818;52.156;5.382;2023-06-04T02:27:37;101958.78;;;13.58;100.00
26043;BME280;13818;52.156;5.382;2023-06-04T02:30:06;101972.16;;;13.58;100.00
26043;BME280;13818;52.156;5.382;2023-06-04T02:32:33;101965.69;;;13.63;100.00
26043;BME280;13818;52.156;5.382;2023-06-04T02:35:01;101967.88;;;13.54;100.00
26043;BME280;13818;52.156;5.382;2023-06-04T02:37:28;101956.16;;;13.78;100.00
26043;BME280;13818;52.156;5.382;2023-06-04T02:39:55;101965.13;;;13.77;100.00
26043;BME280;13818;52.156;5.382;2023-06-04T02:42:21;101958.59;;;13.62;100.00
26043;BME280;13818;52.156;5.382;2023-06-04T02:44:48;101961.16;;;13.65;100.00
26043;BME280;13818;52.156;5.382;2023-06-04T02:47:16;101959.72;;;13.57;100.00
26043;BME280;13818;52.156;5.382;2023-06-04T02:49:44;101956.78;;;13.41;100.00
26043;BME280;13818;52.156;5.382;2023-06-04T02:52:10;101967.34;;;13.45;100.00
26043;BME280;13818;52.156;5.382;2023-06-04T02:54:37;101964.19;;;13.56;100.00
26043;BME280;13818;52.156;5.382;2023-06-04T02:57:04;101960.81;;;13.29;100.00
26043;BME280;13818;52.156;5.382;2023-06-04T02:59:31;101955.81;;;13.43;100.00
26043;BME280;13818;52.156;5.382;2023-06-04T03:01:57;101956.22;;;13.55;100.00
26043;BME280;13818;52.156;5.382;2023-06-04T03:04:25;101948.38;;;13.50;100.00
26043;BME280;13818;52.156;5.382;2023-06-04T03:07:00;101967.66;;;13.36;100.00
26043;BME280;13818;52.156;5.382;2023-06-04T03:09:28;101964.00;;;13.39;100.00
26043;BME280;13818;52.156;5.382;2023-06-04T03:11:57;101951.72;;;13.33;100.00
26043;BME280;13818;52.156;5.382;2023-06-04T03:14:26;101961.41;;;13.13;100.00
26043;BME280;13818;52.156;5.382;2023-06-04T03:16:57;101961.53;;;13.32;100.00
26043;BME280;13818;52.156;5.382;2023-06-04T03:19:27;101950.69;;;13.37;100.00
26043;BME280;13818;52.156;5.382;2023-06-04T03:21:54;101953.94;;;13.45;100.00
26043;BME280;13818;52.156;5.382;2023-06-04T03:24:22;101958.06;;;13.30;100.00
26043;BME280;13818;52.156;5.382;2023-06-04T03:26:48;101959.00;;;13.29;100.00
26043;BME280;13818;52.156;5.382;2023-06-04T03:29:15;101965.66;;;12.95;100.00
26043;BME280;13818;52.156;5.382;2023-06-04T03:31:44;101968.41;;;13.17;100.00
26043;BME280;13818;52.156;5.382;2023-06-04T03:34:10;101962.19;;;13.61;100.00
26043;BME280;13818;52.156;5.382;2023-06-04T03:36:38;101971.75;;;13.23;100.00
26043;BME280;13818;52.156;5.382;2023-06-04T03:39:06;101965.03;;;13.34;100.00
26043;BME280;13818;52.156;5.382;2023-06-04T03:41:33;101960.16;;;13.46;100.00
26043;BME280;13818;52.156;5.382;2023-06-04T03:44:00;101963.16;;;13.60;100.00
26043;BME280;13818;52.156;5.382;2023-06-04T03:46:27;101963.22;;;14.02;100.00
26043;BME280;13818;52.156;5.382;2023-06-04T03:48:56;101956.91;;;14.23;100.00
26043;BME280;13818;52.156;5.382;2023-06-04T03:51:23;101967.22;;;14.12;100.00
26043;BME280;13818;52.156;5.382;2023-06-04T03:53:51;101964.44;;;14.15;100.00
26043;BME280;13818;52.156;5.382;2023-06-04T03:56:18;101964.63;;;14.52;100.00
26043;BME280;13818;52.156;5.382;2023-06-04T03:58:45;101962.66;;;14.76;100.00
26043;BME280;13818;52.156;5.382;2023-06-04T04:01:11;101965.34;;;14.76;100.00
26043;BME280;13818;52.156;5.382;2023-06-04T04:03:38;101966.44;;;15.10;100.00
26043;BME280;13818;52.156;5.382;2023-06-04T04:06:05;101969.06;;;15.31;100.00
26043;BME280;13818;52.156;5.382;2023-06-04T04:08:31;101969.63;;;15.37;100.00
26043;BME280;13818;52.156;5.382;2023-06-04T04:11:00;101966.16;;;15.35;100.00
26043;BME280;13818;52.156;5.382;2023-06-04T04:13:27;101969.47;;;15.77;100.00
26043;BME280;13818;52.156;5.382;2023-06-04T04:15:54;101971.66;;;15.88;100.00
26043;BME280;13818;52.156;5.382;2023-06-04T04:18:22;101966.53;;;16.18;100.00
26043;BME280;13818;52.156;5.382;2023-06-04T04:20:48;101965.03;;;16.30;100.00
26043;BME280;13818;52.156;5.382;2023-06-04T04:23:15;101965.06;;;16.80;100.00
26043;BME280;13818;52.156;5.382;2023-06-04T04:25:42;101972.50;;;17.08;100.00
26043;BME280;13818;52.156;5.382;2023-06-04T04:28:11;101976.97;;;17.25;100.00
26043;BME280;13818;52.156;5.382;2023-06-04T04:30:37;101971.16;;;17.49;100.00
26043;BME280;13818;52.156;5.382;2023-06-04T04:33:04;101976.88;;;17.27;100.00
26043;BME280;13818;52.156;5.382;2023-06-04T04:35:32;101969.25;;;17.35;100.00
26043;BME280;13818;52.156;5.382;2023-06-04T04:37:59;101979.13;;;17.66;100.00
26043;BME280;13818;52.156;5.382;2023-06-04T04:40:28;101976.47;;;18.27;100.00
26043;BME280;13818;52.156;5.382;2023-06-04T04:42:55;101976.47;;;18.42;100.00
26043;BME280;13818;52.156;5.382;2023-06-04T04:45:23;101976.28;;;18.45;98.46
26043;BME280;13818;52.156;5.382;2023-06-04T04:47:49;101970.81;;;19.04;96.20
26043;BME280;13818;52.156;5.382;2023-06-04T04:50:17;101976.19;;;19.18;94.57
26043;BME280;13818;52.156;5.382;2023-06-04T04:52:43;101978.53;;;19.52;93.58
26043;BME280;13818;52.156;5.382;2023-06-04T04:55:10;101977.44;;;20.09;89.38
26043;BME280;13818;52.156;5.382;2023-06-04T04:57:37;101977.75;;;20.05;88.92
26043;BME280;13818;52.156;5.382;2023-06-04T05:00:05;101984.88;;;20.06;88.46
26043;BME280;13818;52.156;5.382;2023-06-04T05:02:35;101984.53;;;20.38;86.54
26043;BME280;13818;52.156;5.382;2023-06-04T05:05:02;101990.19;;;20.73;85.62
26043;BME280;13818;52.156;5.382;2023-06-04T05:07:29;101988.31;;;20.48;84.30
26043;BME280;13818;52.156;5.382;2023-06-04T05:09:56;101992.66;;;20.89;84.01
26043;BME280;13818;52.156;5.382;2023-06-04T05:12:25;101995.78;;;21.33;80.99
26043;BME280;13818;52.156;5.382;2023-06-04T05:14:51;101994.66;;;21.24;79.36
26043;BME280;13818;52.156;5.382;2023-06-04T05:17:18;101994.38;;;21.03;80.38
26043;BME280;13818;52.156;5.382;2023-06-04T05:19:56;101997.25;;;21.26;80.65
26043;BME280;13818;52.156;5.382;2023-06-04T05:22:30;101989.78;;;21.17;79.64
26043;BME280;13818;52.156;5.382;2023-06-04T05:24:58;101994.22;;;22.03;76.08
26043;BME280;13818;52.156;5.382;2023-06-04T05:27:26;101999.06;;;22.58;74.95
26043;BME280;13818;52.156;5.382;2023-06-04T05:29:53;101994.13;;;22.40;72.28
26043;BME280;13818;52.156;5.382;2023-06-04T05:32:19;101986.34;;;22.58;71.65
26043;BME280;13818;52.156;5.382;2023-06-04T05:34:48;101998.13;;;21.51;74.61
26043;BME280;13818;52.156;5.382;2023-06-04T05:37:16;101998.53;;;21.70;73.35
26043;BME280;13818;52.156;5.382;2023-06-04T05:39:43;101998.97;;;22.24;72.16
26043;BME280;13818;52.156;5.382;2023-06-04T05:42:10;101998.22;;;22.80;70.38
26043;BME280;13818;52.156;5.382;2023-06-04T05:44:37;101993.13;;;23.32;68.58
26043;BME280;13818;52.156;5.382;2023-06-04T05:47:04;102001.41;;;23.42;67.00
26043;BME280;13818;52.156;5.382;2023-06-04T05:49:33;102003.41;;;23.40;65.92
26043;BME280;13818;52.156;5.382;2023-06-04T05:52:00;102003.69;;;24.87;63.63
26043;BME280;13818;52.156;5.382;2023-06-04T05:54:29;102000.75;;;24.47;62.43
26043;BME280;13818;52.156;5.382;2023-06-04T05:56:56;102004.06;;;24.09;63.21
26043;BME280;13818;52.156;5.382;2023-06-04T05:59:22;102008.66;;;25.12;58.77
26043;BME280;13818;52.156;5.382;2023-06-04T06:01:49;101997.28;;;23.59;63.94
26043;BME280;13818;52.156;5.382;2023-06-04T06:04:16;101990.91;;;23.37;63.89
26043;BME280;13818;52.156;5.382;2023-06-04T06:06:43;102010.91;;;23.59;63.37
26043;BME280;13818;52.156;5.382;2023-06-04T06:09:12;102002.56;;;23.17;62.38
26043;BME280;13818;52.156;5.382;2023-06-04T06:11:40;102006.13;;;23.40;62.00
26043;BME280;13818;52.156;5.382;2023-06-04T06:14:07;102005.03;;;22.97;63.57
26043;BME280;13818;52.156;5.382;2023-06-04T06:16:33;102012.63;;;23.49;62.68
26043;BME280;13818;52.156;5.382;2023-06-04T06:19:00;102003.75;;;23.91;60.82
26043;BME280;13818;52.156;5.382;2023-06-04T06:21:27;102012.66;;;25.08;57.07
26043;BME280;13818;52.156;5.382;2023-06-04T06:23:53;102015.25;;;25.50;56.06
26043;BME280;13818;52.156;5.382;2023-06-04T06:26:20;102013.72;;;24.01;56.08
26043;BME280;13818;52.156;5.382;2023-06-04T06:28:49;102009.78;;;24.69;55.82
26043;BME280;13818;52.156;5.382;2023-06-04T06:31:15;102020.22;;;25.36;54.85
26043;BME280;13818;52.156;5.382;2023-06-04T06:33:42;102027.09;;;25.30;54.07
26043;BME280;13818;52.156;5.382;2023-06-04T06:36:09;102009.81;;;25.99;53.64
26043;BME280;13818;52.156;5.382;2023-06-04T06:38:37;102013.28;;;25.72;51.68
26043;BME280;13818;52.156;5.382;2023-06-04T06:41:04;102017.41;;;25.47;51.50
26043;BME280;13818;52.156;5.382;2023-06-04T06:43:31;102008.72;;;24.91;51.08
26043;BME280;13818;52.156;5.382;2023-06-04T06:45:59;102005.94;;;25.63;51.02
26043;BME280;13818;52.156;5.382;2023-06-04T06:48:26;102009.47;;;26.61;51.73
26043;BME280;13818;52.156;5.382;2023-06-04T06:50:53;102021.78;;;25.89;50.38
26043;BME280;13818;52.156;5.382;2023-06-04T06:53:20;102023.00;;;25.45;52.44
26043;BME280;13818;52.156;5.382;2023-06-04T06:55:46;102028.41;;;26.73;49.61
26043;BME280;13818;52.156;5.382;2023-06-04T06:58:13;102028.50;;;26.34;49.51
26043;BME280;13818;52.156;5.382;2023-06-04T07:00:40;102021.13;;;26.63;49.73
26043;BME280;13818;52.156;5.382;2023-06-04T07:03:08;102024.66;;;26.17;48.04
26043;BME280;13818;52.156;5.382;2023-06-04T07:05:35;102027.84;;;26.89;48.20
26043;BME280;13818;52.156;5.382;2023-06-04T07:08:01;102033.72;;;26.37;47.90
26043;BME280;13818;52.156;5.382;2023-06-04T07:10:29;102029.38;;;27.57;45.95
26043;BME280;13818;52.156;5.382;2023-06-04T07:12:56;102023.66;;;27.68;44.80
26043;BME280;13818;52.156;5.382;2023-06-04T07:15:22;102030.56;;;27.72;44.23
26043;BME280;13818;52.156;5.382;2023-06-04T07:17:49;102036.34;;;27.69;43.80
26043;BME280;13818;52.156;5.382;2023-06-04T07:20:17;102029.09;;;27.78;43.49
26043;BME280;13818;52.156;5.382;2023-06-04T07:22:43;102031.06;;;28.22;43.25
26043;BME280;13818;52.156;5.382;2023-06-04T07:25:10;102032.97;;;28.74;42.49
26043;BME280;13818;52.156;5.382;2023-06-04T07:27:37;102037.81;;;29.15;41.74
26043;BME280;13818;52.156;5.382;2023-06-04T07:30:07;102044.19;;;28.36;41.96
26043;BME280;13818;52.156;5.382;2023-06-04T07:32:34;102055.97;;;25.83;44.28
26043;BME280;13818;52.156;5.382;2023-06-04T07:35:01;102041.09;;;27.21;45.30
26043;BME280;13818;52.156;5.382;2023-06-04T07:37:29;102032.94;;;27.39;44.37
26043;BME280;13818;52.156;5.382;2023-06-04T07:39:56;102035.06;;;27.46;43.73
26043;BME280;13818;52.156;5.382;2023-06-04T07:42:22;102045.25;;;26.88;45.01
26043;BME280;13818;52.156;5.382;2023-06-04T07:44:49;102031.50;;;27.35;44.04
26043;BME280;13818;52.156;5.382;2023-06-04T07:47:15;102036.22;;;27.89;45.08
26043;BME280;13818;52.156;5.382;2023-06-04T07:49:42;102038.47;;;27.57;44.86
26043;BME280;13818;52.156;5.382;2023-06-04T07:52:08;102037.22;;;26.76;45.38
26043;BME280;13818;52.156;5.382;2023-06-04T07:54:36;102035.91;;;28.10;43.90
26043;BME280;13818;52.156;5.382;2023-06-04T07:57:03;102041.56;;;25.21;46.41
26043;BME280;13818;52.156;5.382;2023-06-04T07:59:30;102031.63;;;26.68;45.96
26043;BME280;13818;52.156;5.382;2023-06-04T08:01:57;102034.34;;;26.68;46.00
26043;BME280;13818;52.156;5.382;2023-06-04T08:04:23;102041.03;;;27.03;45.14
26043;BME280;13818;52.156;5.382;2023-06-04T08:06:50;102042.59;;;25.80;45.78
26043;BME280;13818;52.156;5.382;2023-06-04T08:09:17;102040.03;;;26.27;45.58
26043;BME280;13818;52.156;5.382;2023-06-04T08:11:45;102043.47;;;26.00;45.96
26043;BME280;13818;52.156;5.382;2023-06-04T08:14:11;102032.94;;;27.02;45.88
26043;BME280;13818;52.156;5.382;2023-06-04T08:16:39;102031.91;;;26.65;48.51
26043;BME280;13818;52.156;5.382;2023-06-04T08:19:06;102036.63;;;26.83;46.10
26043;BME280;13818;52.156;5.382;2023-06-04T08:21:33;102036.16;;;25.81;46.77
26043;BME280;13818;52.156;5.382;2023-06-04T08:24:00;102033.13;;;26.33;45.58
26043;BME280;13818;52.156;5.382;2023-06-04T08:26:27;102036.94;;;25.62;45.77
26043;BME280;13818;52.156;5.382;2023-06-04T08:28:55;102052.50;;;25.21;46.44
26043;BME280;13818;52.156;5.382;2023-06-04T08:31:22;102039.00;;;24.88;47.77
26043;BME280;13818;52.156;5.382;2023-06-04T08:33:48;102044.41;;;25.50;46.90
26043;BME280;13818;52.156;5.382;2023-06-04T08:36:15;102044.44;;;25.19;47.47
26043;BME280;13818;52.156;5.382;2023-06-04T08:38:42;102037.63;;;24.73;48.04
26043;BME280;13818;52.156;5.382;2023-06-04T08:41:13;102032.25;;;24.92;47.82
26043;BME280;13818;52.156;5.382;2023-06-04T08:43:42;102038.94;;;25.09;48.12
26043;BME280;13818;52.156;5.382;2023-06-04T08:46:11;102036.53;;;24.64;47.71
26043;BME280;13818;52.156;5.382;2023-06-04T08:48:38;102049.78;;;24.47;47.27
26043;BME280;13818;52.156;5.382;2023-06-04T08:51:05;102034.81;;;24.84;48.62
26043;BME280;13818;52.156;5.382;2023-06-04T08:53:34;102029.13;;;23.91;50.27
26043;BME280;13818;52.156;5.382;2023-06-04T08:56:02;102038.88;;;24.47;51.86
26043;BME280;13818;52.156;5.382;2023-06-04T08:58:31;102043.63;;;23.69;51.00
26043;BME280;13818;52.156;5.382;2023-06-04T09:00:58;102047.41;;;23.45;50.62
26043;BME280;13818;52.156;5.382;2023-06-04T09:03:28;102040.22;;;23.55;51.48
26043;BME280;13818;52.156;5.382;2023-06-04T09:05:55;102047.06;;;23.94;50.88
26043;BME280;13818;52.156;5.382;2023-06-04T09:08:24;102037.97;;;23.61;51.00
26043;BME280;13818;52.156;5.382;2023-06-04T09:10:53;102036.03;;;23.95;50.74
26043;BME280;13818;52.156;5.382;2023-06-04T09:13:21;102047.41;;;23.89;52.17
26043;BME280;13818;52.156;5.382;2023-06-04T09:15:58;102033.56;;;23.48;49.88
26043;BME280;13818;52.156;5.382;2023-06-04T09:18:26;102034.19;;;23.96;50.34
26043;BME280;13818;52.156;5.382;2023-06-04T09:21:00;102040.59;;;23.51;51.66
26043;BME280;13818;52.156;5.382;2023-06-04T09:23:27;102042.69;;;23.47;51.06
26043;BME280;13818;52.156;5.382;2023-06-04T09:25:54;102036.13;;;23.61;51.21
26043;BME280;13818;52.156;5.382;2023-06-04T09:28:20;102043.34;;;23.83;50.56
26043;BME280;13818;52.156;5.382;2023-06-04T09:30:51;102042.19;;;23.53;52.30
26043;BME280;13818;52.156;5.382;2023-06-04T09:33:18;102046.03;;;22.83;52.50
26043;BME280;13818;52.156;5.382;2023-06-04T09:35:54;102034.09;;;23.19;53.25
26043;BME280;13818;52.156;5.382;2023-06-04T09:38:20;102033.56;;;23.48;51.39
26043;BME280;13818;52.156;5.382;2023-06-04T09:40:47;102036.28;;;23.37;50.80
26043;BME280;13818;52.156;5.382;2023-06-04T09:43:21;102023.06;;;23.21;50.43
26043;BME280;13818;52.156;5.382;2023-06-04T09:45:48;102035.94;;;23.30;53.14
26043;BME280;13818;52.156;5.382;2023-06-04T09:48:19;102031.63;;;23.16;51.51
26043;BME280;13818;52.156;5.382;2023-06-04T09:50:47;102041.34;;;22.96;51.96
26043;BME280;13818;52.156;5.382;2023-06-04T09:53:16;102032.22;;;22.74;50.99
26043;BME280;13818;52.156;5.382;2023-06-04T09:55:43;102030.56;;;22.49;52.15
26043;BME280;13818;52.156;5.382;2023-06-04T09:58:11;102037.66;;;22.86;52.12
26043;BME280;13818;52.156;5.382;2023-06-04T10:00:38;102025.03;;;22.73;51.19
26043;BME280;13818;52.156;5.382;2023-06-04T10:03:08;102040.78;;;23.15;53.28
26043;BME280;13818;52.156;5.382;2023-06-04T10:05:39;102032.94;;;23.11;50.51
26043;BME280;13818;52.156;5.382;2023-06-04T10:08:07;102030.38;;;23.20;52.65
26043;BME280;13818;52.156;5.382;2023-06-04T10:10:37;102031.63;;;23.16;53.17
26043;BME280;13818;52.156;5.382;2023-06-04T10:13:06;102029.38;;;23.44;50.12
26043;BME280;13818;52.156;5.382;2023-06-04T10:15:35;102031.19;;;22.75;47.70
26043;BME280;13818;52.156;5.382;2023-06-04T10:18:02;102038.50;;;22.75;49.74
26043;BME280;13818;52.156;5.382;2023-06-04T10:20:30;102028.50;;;22.98;52.60
26043;BME280;13818;52.156;5.382;2023-06-04T10:22:57;102025.19;;;22.83;48.86
26043;BME280;13818;52.156;5.382;2023-06-04T10:25:26;102030.97;;;23.13;48.27
26043;BME280;13818;52.156;5.382;2023-06-04T10:27:54;102023.19;;;23.19;49.18
26043;BME280;13818;52.156;5.382;2023-06-04T10:30:22;102030.13;;;23.23;50.20
26043;BME280;13818;52.156;5.382;2023-06-04T10:32:50;102042.81;;;22.66;49.04
26043;BME280;13818;52.156;5.382;2023-06-04T10:35:16;102029.47;;;21.92;49.23
26043;BME280;13818;52.156;5.382;2023-06-04T10:37:44;102027.75;;;22.26;53.35
26043;BME280;13818;52.156;5.382;2023-06-04T10:40:13;102016.84;;;22.15;51.18
26043;BME280;13818;52.156;5.382;2023-06-04T10:42:42;102025.97;;;22.14;52.34
26043;BME280;13818;52.156;5.382;2023-06-04T10:45:10;102027.84;;;21.89;50.95
26043;BME280;13818;52.156;5.382;2023-06-04T10:47:37;102023.19;;;21.91;51.17
26043;BME280;13818;52.156;5.382;2023-06-04T10:50:07;102036.84;;;21.90;51.63
26043;BME280;13818;52.156;5.382;2023-06-04T10:52:34;102009.94;;;22.22;54.67
26043;BME280;13818;52.156;5.382;2023-06-04T10:55:03;102015.34;;;22.11;51.82
26043;BME280;13818;52.156;5.382;2023-06-04T10:57:30;102009.22;;;21.96;52.19
26043;BME280;13818;52.156;5.382;2023-06-04T11:00:00;102028.22;;;22.20;53.27
26043;BME280;13818;52.156;5.382;2023-06-04T11:02:31;102027.56;;;21.81;53.21
26043;BME280;13818;52.156;5.382;2023-06-04T11:05:01;102039.03;;;22.09;54.82
26043;BME280;13818;52.156;5.382;2023-06-04T11:07:40;102027.38;;;21.96;55.02
26043;BME280;13818;52.156;5.382;2023-06-04T11:10:09;102025.13;;;21.65;54.74
26043;BME280;13818;52.156;5.382;2023-06-04T11:12:41;102021.69;;;21.50;55.83
26043;BME280;13818;52.156;5.382;2023-06-04T11:15:09;102012.28;;;21.80;54.98
26043;BME280;13818;52.156;5.382;2023-06-04T11:17:48;102010.72;;;21.89;54.95
26043;BME280;13818;52.156;5.382;2023-06-04T11:20:15;102019.22;;;22.31;55.35
26043;BME280;13818;52.156;5.382;2023-06-04T11:22:42;102010.97;;;22.33;55.78
26043;BME280;13818;52.156;5.382;2023-06-04T11:25:09;102017.72;;;22.63;56.82
26043;BME280;13818;52.156;5.382;2023-06-04T11:27:36;102011.19;;;22.65;53.09
26043;BME280;13818;52.156;5.382;2023-06-04T11:30:03;102010.84;;;22.23;54.84
26043;BME280;13818;52.156;5.382;2023-06-04T11:32:30;102014.16;;;22.15;56.53
26043;BME280;13818;52.156;5.382;2023-06-04T11:35:05;101999.56;;;22.52;56.17
26043;BME280;13818;52.156;5.382;2023-06-04T11:37:32;102003.97;;;22.06;53.97
26043;BME280;13818;52.156;5.382;2023-06-04T11:40:00;102008.97;;;21.88;55.34
26043;BME280;13818;52.156;5.382;2023-06-04T11:42:27;101997.81;;;22.04;54.83
26043;BME280;13818;52.156;5.382;2023-06-04T11:44:55;102006.50;;;22.20;55.17
26043;BME280;13818;52.156;5.382;2023-06-04T11:47:22;101993.94;;;22.31;57.38
26043;BME280;13818;52.156;5.382;2023-06-04T11:49:54;101988.81;;;22.15;53.27
26043;BME280;13818;52.156;5.382;2023-06-04T11:52:22;101987.06;;;22.38;55.93
26043;BME280;13818;52.156;5.382;2023-06-04T11:54:49;101989.22;;;22.33;54.46
26043;BME280;13818;52.156;5.382;2023-06-04T11:57:16;101982.44;;;22.27;52.08
26043;BME280;13818;52.156;5.382;2023-06-04T11:59:44;101981.81;;;22.23;54.47
26043;BME280;13818;52.156;5.382;2023-06-04T12:02:12;101978.81;;;22.39;53.92
26043;BME280;13818;52.156;5.382;2023-06-04T12:04:38;101978.56;;;22.54;54.27
26043;BME280;13818;52.156;5.382;2023-06-04T12:07:05;101971.81;;;22.82;57.15
26043;BME280;13818;52.156;5.382;2023-06-04T12:09:35;101991.03;;;22.68;54.25
26043;BME280;13818;52.156;5.382;2023-06-04T12:12:03;101979.31;;;22.56;54.31
26043;BME280;13818;52.156;5.382;2023-06-04T12:14:31;101975.88;;;22.18;55.08
26043;BME280;13818;52.156;5.382;2023-06-04T12:17:01;101975.19;;;22.39;55.12
26043;BME280;13818;52.156;5.382;2023-06-04T12:19:28;101973.91;;;22.20;54.80
26043;BME280;13818;52.156;5.382;2023-06-04T12:22:02;101974.16;;;22.29;53.96
26043;BME280;13818;52.156;5.382;2023-06-04T12:24:30;101970.75;;;22.02;53.67
26043;BME280;13818;52.156;5.382;2023-06-04T12:27:07;101978.38;;;22.33;53.65
26043;BME280;13818;52.156;5.382;2023-06-04T12:29:35;101976.09;;;22.51;53.93
26043;BME280;13818;52.156;5.382;2023-06-04T12:32:02;101978.84;;;22.62;55.00
26043;BME280;13818;52.156;5.382;2023-06-04T12:34:30;101991.31;;;22.76;54.97
26043;BME280;13818;52.156;5.382;2023-06-04T12:36:56;101974.88;;;22.89;54.06
26043;BME280;13818;52.156;5.382;2023-06-04T12:39:23;101983.16;;;22.87;52.86
26043;BME280;13818;52.156;5.382;2023-06-04T12:41:50;101973.53;;;22.95;55.62
26043;BME280;13818;52.156;5.382;2023-06-04T12:44:18;101970.91;;;22.93;53.79
26043;BME280;13818;52.156;5.382;2023-06-04T12:46:44;101963.25;;;22.98;55.38
26043;BME280;13818;52.156;5.382;2023-06-04T12:49:11;101971.31;;;22.77;51.71